createdAt,value
2022-11-19T00:02:40.064Z,6.00
2022-11-19T00:05:26.472Z,6.26
2022-11-19T00:08:19.157Z,6.22
2022-11-19T00:11:11.924Z,6.09
2022-11-19T00:13:58.260Z,6.11
2022-11-19T00:16:45.373Z,6.21
2022-11-19T00:19:31.663Z,6.17
2022-11-19T00:22:17.803Z,6.23
2022-11-19T00:25:04.636Z,6.20
2022-11-19T00:27:51.253Z,6.21
2022-11-19T00:30:52.669Z,6.21
2022-11-19T00:33:40.698Z,6.43
2022-11-19T00:36:26.896Z,6.34
2022-11-19T00:39:13.068Z,6.38
2022-11-19T00:41:59.267Z,6.11
2022-11-19T00:44:46.080Z,6.08
2022-11-19T00:47:32.939Z,6.16
2022-11-19T00:50:19.336Z,6.09
2022-11-19T00:53:05.653Z,5.95
2022-11-19T00:55:52.000Z,6.04
2022-11-19T00:58:39.405Z,6.17
2022-11-19T01:01:26.410Z,6.39
2022-11-19T01:04:13.220Z,6.43
2022-11-19T01:06:59.640Z,6.36
2022-11-19T01:09:47.246Z,6.34
2022-11-19T01:12:53.616Z,6.38
2022-11-19T01:15:40.011Z,6.54
2022-11-19T01:18:27.815Z,6.39
2022-11-19T01:21:15.849Z,6.47
2022-11-19T01:24:03.306Z,6.61
2022-11-19T01:26:49.809Z,6.39
2022-11-19T01:29:35.947Z,6.30
2022-11-19T01:32:22.344Z,6.41
2022-11-19T01:35:09.019Z,6.47
2022-11-19T01:37:55.399Z,6.37
2022-11-19T01:40:43.829Z,6.39
2022-11-19T01:43:47.080Z,6.52
2022-11-19T01:46:38.507Z,6.50
2022-11-19T01:49:24.925Z,6.27
2022-11-19T01:52:11.405Z,6.40
2022-11-19T01:54:57.987Z,6.34
2022-11-19T01:57:45.032Z,6.46
2022-11-19T02:00:31.587Z,6.33
2022-11-19T02:03:18.953Z,6.38
2022-11-19T02:06:06.257Z,6.25
2022-11-19T02:08:53.076Z,6.40
2022-11-19T02:11:51.232Z,6.36
2022-11-19T02:15:22.891Z,6.37
2022-11-19T02:18:21.158Z,6.30
2022-11-19T02:21:07.856Z,6.16
2022-11-19T02:24:11.506Z,5.98
2022-11-19T02:27:15.692Z,5.75
2022-11-19T02:30:08.639Z,5.76
2022-11-19T02:33:04.945Z,5.74
2022-11-19T02:36:12.171Z,5.89
2022-11-19T02:39:08.012Z,5.69
2022-11-19T02:42:04.148Z,5.81
2022-11-19T02:44:58.593Z,5.98
2022-11-19T02:47:49.596Z,6.00
2022-11-19T02:51:00.040Z,6.08
2022-11-19T02:53:49.611Z,6.14
2022-11-19T02:56:58.723Z,6.27
2022-11-19T03:00:12.264Z,6.18
2022-11-19T03:03:29.445Z,6.28
2022-11-19T03:06:20.369Z,6.31
2022-11-19T03:09:06.889Z,6.34
2022-11-19T03:12:07.819Z,6.30
2022-11-19T03:15:35.745Z,6.33
2022-11-19T03:18:28.525Z,6.32
2022-11-19T03:21:28.436Z,6.46
2022-11-19T03:24:21.496Z,6.21
2022-11-19T03:27:21.617Z,6.45
2022-11-19T03:30:09.700Z,6.47
2022-11-19T03:33:14.793Z,6.54
2022-11-19T03:36:06.913Z,6.56
2022-11-19T03:38:58.002Z,6.52
2022-11-19T03:41:48.573Z,6.42
2022-11-19T03:44:43.916Z,6.59
2022-11-19T03:47:35.668Z,6.51
2022-11-19T03:50:49.811Z,6.65
2022-11-19T03:53:36.450Z,6.59
2022-11-19T03:56:26.181Z,6.73
2022-11-19T03:59:12.988Z,6.64
2022-11-19T04:02:03.290Z,6.78
2022-11-19T04:04:49.833Z,6.63
2022-11-19T04:07:36.454Z,6.49
2022-11-19T04:10:22.869Z,6.58
2022-11-19T04:13:09.341Z,6.67
2022-11-19T04:15:55.597Z,6.63
2022-11-19T04:18:42.032Z,6.52
2022-11-19T04:21:28.577Z,6.35
2022-11-19T04:24:15.536Z,6.66
2022-11-19T04:27:02.262Z,6.81
2022-11-19T04:29:48.540Z,6.87
2022-11-19T04:32:34.576Z,6.89
2022-11-19T04:35:21.868Z,6.87
2022-11-19T04:38:08.273Z,6.90
2022-11-19T04:40:54.448Z,6.87
2022-11-19T04:43:40.645Z,7.10
2022-11-19T04:46:27.145Z,7.09
2022-11-19T04:49:13.541Z,6.99
2022-11-19T04:52:00.088Z,6.93
2022-11-19T04:54:46.339Z,7.11
2022-11-19T04:57:32.895Z,7.11
2022-11-19T05:00:19.369Z,7.04
2022-11-19T05:03:06.137Z,6.92
2022-11-19T05:05:52.690Z,6.77
2022-11-19T05:08:39.052Z,6.90
2022-11-19T05:11:25.425Z,6.72
2022-11-19T05:14:11.597Z,6.81
2022-11-19T05:16:57.773Z,6.89
2022-11-19T05:19:43.993Z,6.77
2022-11-19T05:22:30.453Z,6.79
2022-11-19T05:25:16.773Z,7.04
2022-11-19T05:28:02.956Z,7.09
2022-11-19T05:30:49.362Z,7.14
2022-11-19T05:33:35.702Z,7.12
2022-11-19T05:36:21.800Z,7.02
2022-11-19T05:39:08.053Z,6.86
2022-11-19T05:41:54.279Z,7.15
2022-11-19T05:44:40.535Z,7.32
2022-11-19T05:47:27.119Z,7.37
2022-11-19T05:50:13.635Z,7.21
2022-11-19T05:53:00.043Z,6.96
2022-11-19T05:55:46.263Z,6.97
2022-11-19T05:58:32.766Z,6.90
2022-11-19T06:01:26.557Z,6.86
2022-11-19T06:04:12.965Z,6.84
2022-11-19T06:06:59.468Z,6.76
2022-11-19T06:09:46.223Z,6.68
2022-11-19T06:12:32.663Z,6.82
2022-11-19T06:15:18.852Z,6.79
2022-11-19T06:18:05.205Z,6.61
2022-11-19T06:20:51.368Z,6.66
2022-11-19T06:23:37.526Z,6.52
2022-11-19T06:26:27.820Z,6.40
2022-11-19T06:29:15.131Z,6.27
2022-11-19T06:32:01.379Z,6.12
2022-11-19T06:34:47.755Z,6.10
2022-11-19T06:37:34.197Z,6.23
2022-11-19T06:40:20.524Z,6.12
2022-11-19T06:43:06.891Z,5.95
2022-11-19T06:45:54.446Z,5.89
2022-11-19T06:48:41.201Z,5.89
2022-11-19T06:51:27.552Z,6.04
2022-11-19T06:54:13.834Z,6.12
2022-11-19T06:57:00.652Z,6.01
2022-11-19T06:59:47.354Z,5.89
2022-11-19T07:02:33.619Z,6.16
2022-11-19T07:05:19.941Z,6.23
2022-11-19T07:08:06.189Z,6.54
2022-11-19T07:10:52.628Z,6.43
2022-11-19T07:13:57.132Z,6.54
2022-11-19T07:16:43.644Z,6.77
2022-11-19T07:19:30.284Z,6.89
2022-11-19T07:22:16.809Z,7.07
2022-11-19T07:25:03.098Z,7.06
2022-11-19T07:27:49.449Z,6.96
2022-11-19T07:30:35.768Z,7.07
2022-11-19T07:33:22.059Z,7.11
2022-11-19T07:36:13.933Z,7.30
2022-11-19T07:39:04.939Z,7.24
2022-11-19T07:42:10.061Z,7.37
2022-11-19T07:45:00.098Z,7.39
2022-11-19T07:47:46.398Z,7.40
2022-11-19T07:50:32.656Z,7.38
2022-11-19T07:53:19.089Z,7.36
2022-11-19T07:56:05.708Z,7.56
2022-11-19T07:58:52.060Z,7.49
2022-11-19T08:01:38.857Z,7.39
2022-11-19T08:04:28.440Z,7.31
2022-11-19T08:07:14.786Z,7.40
2022-11-19T08:10:01.250Z,7.53
2022-11-19T08:13:03.100Z,7.49
2022-11-19T08:15:49.492Z,7.37
2022-11-19T08:18:36.326Z,7.59
2022-11-19T08:21:22.683Z,7.42
2022-11-19T08:24:10.728Z,7.37
2022-11-19T08:26:57.087Z,7.32
2022-11-19T08:29:43.132Z,7.61
2022-11-19T08:32:29.332Z,7.65
2022-11-19T08:35:15.716Z,7.69
2022-11-19T08:38:02.300Z,7.97
2022-11-19T08:41:14.971Z,7.95
2022-11-19T08:44:02.214Z,8.02
2022-11-19T08:46:48.680Z,8.13
2022-11-19T08:49:34.837Z,8.28
2022-11-19T08:52:21.267Z,8.34
2022-11-19T08:55:08.462Z,8.64
2022-11-19T08:58:00.720Z,8.70
2022-11-19T09:00:47.091Z,8.66
2022-11-19T09:03:33.550Z,8.72
2022-11-19T09:06:20.048Z,8.93
2022-11-19T09:09:06.157Z,8.80
2022-11-19T09:11:52.430Z,8.90
2022-11-19T09:14:38.696Z,9.00
2022-11-19T09:17:24.982Z,9.09
2022-11-19T09:20:11.488Z,8.89
2022-11-19T09:22:58.090Z,8.99
2022-11-19T09:25:44.314Z,9.06
2022-11-19T09:28:31.310Z,8.99
2022-11-19T09:31:19.658Z,8.89
2022-11-19T09:34:05.845Z,8.89
2022-11-19T09:36:52.107Z,8.70
2022-11-19T09:39:38.791Z,8.79
2022-11-19T09:42:27.846Z,8.79
2022-11-19T09:45:14.565Z,8.66
2022-11-19T09:48:20.656Z,8.76
2022-11-19T09:51:12.607Z,8.70
2022-11-19T09:54:04.288Z,8.58
2022-11-19T09:56:54.538Z,8.78
2022-11-19T09:59:42.099Z,8.57
2022-11-19T10:02:29.493Z,8.63
2022-11-19T10:05:27.566Z,8.82
2022-11-19T10:08:25.990Z,8.86
2022-11-19T10:11:37.426Z,8.91
2022-11-19T10:14:36.409Z,8.99
2022-11-19T10:17:28.616Z,9.15
2022-11-19T10:20:30.392Z,9.19
2022-11-19T10:24:00.717Z,9.15
2022-11-19T10:27:08.320Z,9.17
2022-11-19T10:29:58.346Z,9.28
2022-11-19T10:32:53.503Z,8.99
2022-11-19T10:35:48.323Z,9.15
2022-11-19T10:39:01.376Z,9.04
2022-11-19T10:41:57.824Z,9.11
2022-11-19T10:44:56.502Z,9.01
2022-11-19T10:47:49.180Z,8.90
2022-11-19T10:50:35.804Z,8.89
2022-11-19T10:53:29.415Z,8.83
2022-11-19T10:56:22.077Z,8.67
2022-11-19T10:59:17.401Z,8.60
2022-11-19T11:02:25.009Z,8.79
2022-11-19T11:05:17.216Z,8.67
2022-11-19T11:08:11.210Z,8.53
2022-11-19T11:10:57.840Z,8.64
2022-11-19T11:14:02.969Z,8.40
2022-11-19T11:16:49.385Z,8.37
2022-11-19T11:19:36.880Z,8.21
2022-11-19T11:22:23.988Z,8.35
2022-11-19T11:25:24.943Z,8.39
2022-11-19T11:28:13.211Z,8.27
2022-11-19T11:31:02.056Z,8.14
2022-11-19T11:33:56.362Z,8.30
2022-11-19T11:36:44.210Z,8.16
2022-11-19T11:39:40.047Z,8.25
2022-11-19T11:42:28.980Z,8.40
2022-11-19T11:45:36.823Z,8.43
2022-11-19T11:48:23.484Z,8.50
2022-11-19T11:51:34.466Z,8.50
2022-11-19T11:54:21.714Z,8.29
2022-11-19T11:57:17.380Z,8.33
2022-11-19T12:00:40.233Z,8.42
2022-11-19T12:03:26.730Z,8.07
2022-11-19T12:06:16.860Z,8.32
2022-11-19T12:09:15.755Z,8.13
2022-11-19T12:12:13.220Z,8.16
2022-11-19T12:15:30.228Z,8.26
2022-11-19T12:18:27.239Z,8.15
2022-11-19T12:21:44.480Z,8.22
2022-11-19T12:24:57.169Z,8.21
2022-11-19T12:27:55.668Z,8.10
2022-11-19T12:31:10.064Z,8.04
2022-11-19T12:34:18.955Z,8.05
2022-11-19T12:37:22.855Z,8.03
2022-11-19T12:40:38.401Z,7.90
2022-11-19T12:43:50.323Z,7.86
2022-11-19T12:47:00.539Z,7.96
2022-11-19T12:50:11.296Z,8.10
2022-11-19T12:53:12.914Z,8.21
2022-11-19T12:56:15.157Z,8.22
2022-11-19T12:59:11.955Z,8.31
2022-11-19T13:02:02.922Z,8.19
2022-11-19T13:04:54.797Z,8.01
2022-11-19T13:07:55.713Z,8.10
2022-11-19T13:10:53.582Z,8.28
2022-11-19T13:13:47.108Z,8.13
2022-11-19T13:16:35.092Z,7.96
2022-11-19T13:19:38.136Z,7.99
2022-11-19T13:22:33.750Z,8.10
2022-11-19T13:26:01.597Z,8.07
2022-11-19T13:28:55.589Z,7.95
2022-11-19T13:31:52.205Z,7.73
2022-11-19T13:35:12.411Z,7.56
2022-11-19T13:38:26.138Z,7.94
2022-11-19T13:41:27.227Z,7.89
2022-11-19T13:44:33.062Z,7.90
2022-11-19T13:47:25.289Z,7.88
2022-11-19T13:50:22.409Z,7.89
2022-11-19T13:53:25.885Z,8.08
2022-11-19T13:56:17.117Z,7.84
2022-11-19T13:59:05.315Z,7.71
2022-11-19T14:02:28.765Z,8.14
2022-11-19T14:05:30.435Z,8.09
2022-11-19T14:08:54.634Z,8.12
2022-11-19T14:12:19.080Z,8.09
2022-11-19T14:15:52.829Z,8.03
2022-11-19T14:19:02.736Z,7.80
2022-11-19T14:22:12.916Z,7.90
2022-11-19T14:25:17.896Z,7.85
2022-11-19T14:28:41.477Z,8.01
2022-11-19T14:31:27.640Z,7.90
2022-11-19T14:34:29.838Z,7.97
2022-11-19T14:37:22.901Z,7.94
2022-11-19T14:40:12.386Z,8.09
2022-11-19T14:43:20.456Z,7.94
2022-11-19T14:46:09.622Z,7.72
2022-11-19T14:49:02.105Z,7.76
2022-11-19T14:51:53.668Z,7.32
2022-11-19T14:54:44.793Z,7.61
2022-11-19T14:57:37.817Z,7.77
2022-11-19T15:00:23.910Z,7.65
2022-11-19T15:03:27.345Z,7.40
2022-11-19T15:06:17.650Z,7.56
2022-11-19T15:09:04.250Z,7.23
2022-11-19T15:11:56.891Z,7.29
2022-11-19T15:15:03.109Z,7.01
2022-11-19T15:18:04.433Z,6.89
2022-11-19T15:21:08.732Z,6.93
2022-11-19T15:24:13.428Z,6.84
2022-11-19T15:27:29.532Z,6.40
2022-11-19T15:30:40.644Z,6.60
2022-11-19T15:33:35.256Z,6.56
2022-11-19T15:36:28.667Z,6.65
2022-11-19T15:39:45.526Z,6.45
2022-11-19T15:42:40.943Z,6.30
2022-11-19T15:45:33.125Z,6.28
2022-11-19T15:48:35.704Z,6.17
2022-11-19T15:51:23.144Z,5.92
2022-11-19T15:54:12.276Z,5.87
2022-11-19T15:57:02.834Z,5.79
2022-11-19T15:59:59.764Z,5.50
2022-11-19T16:02:49.552Z,5.68
2022-11-19T16:05:36.132Z,5.60
2022-11-19T16:08:22.324Z,5.43
2022-11-19T16:11:27.292Z,5.44
2022-11-19T16:14:50.766Z,4.98
2022-11-19T16:17:46.994Z,5.24
2022-11-19T16:20:34.042Z,5.16
2022-11-19T16:23:25.786Z,5.20
2022-11-19T16:26:12.095Z,5.24
2022-11-19T16:29:01.144Z,4.93
2022-11-19T16:31:53.130Z,4.96
2022-11-19T16:34:40.472Z,4.92
2022-11-19T16:37:26.800Z,4.98
2022-11-19T16:40:16.568Z,4.76
2022-11-19T16:43:02.910Z,4.98
2022-11-19T16:45:49.367Z,4.87
2022-11-19T16:48:42.444Z,4.96
2022-11-19T16:51:52.862Z,4.79
2022-11-19T16:54:46.895Z,4.88
2022-11-19T16:57:33.215Z,4.72
2022-11-19T17:00:22.239Z,4.85
2022-11-19T17:03:20.614Z,5.00
2022-11-19T17:06:17.627Z,4.74
2022-11-19T17:09:06.385Z,4.88
2022-11-19T17:12:13.302Z,4.95
2022-11-19T17:15:01.584Z,4.63
2022-11-19T17:17:48.122Z,4.68
2022-11-19T17:20:34.765Z,4.90
2022-11-19T17:23:34.468Z,4.91
2022-11-19T17:26:25.651Z,4.73
2022-11-19T17:29:15.913Z,4.94
2022-11-19T17:32:03.848Z,4.89
2022-11-19T17:34:55.024Z,4.89
2022-11-19T17:37:41.510Z,4.76
2022-11-19T17:40:27.756Z,4.92
2022-11-19T17:43:34.652Z,4.88
2022-11-19T17:46:22.384Z,4.60
2022-11-19T17:49:08.944Z,4.83
2022-11-19T17:51:55.406Z,4.78
2022-11-19T17:54:42.080Z,4.93
2022-11-19T17:57:28.631Z,4.98
2022-11-19T18:00:16.090Z,4.89
2022-11-19T18:03:03.335Z,4.79
2022-11-19T18:05:50.180Z,4.90
2022-11-19T18:08:37.879Z,4.59
2022-11-19T18:11:25.516Z,4.77
2022-11-19T18:14:12.804Z,4.72
2022-11-19T18:16:59.344Z,4.72
2022-11-19T18:19:45.701Z,4.49
2022-11-19T18:22:32.134Z,4.89
2022-11-19T18:25:19.815Z,4.57
2022-11-19T18:28:06.573Z,4.80
2022-11-19T18:30:53.187Z,4.49
2022-11-19T18:33:41.676Z,4.55
2022-11-19T18:36:27.976Z,4.70
2022-11-19T18:39:14.489Z,4.84
2022-11-19T18:42:00.750Z,4.77
2022-11-19T18:44:46.963Z,4.93
2022-11-19T18:47:33.154Z,4.89
2022-11-19T18:50:19.731Z,4.98
2022-11-19T18:53:06.260Z,4.91
2022-11-19T18:55:53.044Z,4.89
2022-11-19T18:58:39.304Z,4.77
2022-11-19T19:01:26.362Z,4.65
2022-11-19T19:04:14.770Z,4.94
2022-11-19T19:07:02.587Z,4.76
2022-11-19T19:09:50.616Z,4.66
2022-11-19T19:12:38.363Z,5.06
2022-11-19T19:15:25.408Z,5.07
2022-11-19T19:18:11.696Z,5.12
2022-11-19T19:20:58.160Z,5.04
2022-11-19T19:23:44.511Z,4.97
2022-11-19T19:26:31.114Z,5.11
2022-11-19T19:29:18.078Z,4.95
2022-11-19T19:32:04.951Z,4.95
2022-11-19T19:34:52.529Z,4.84
2022-11-19T19:37:42.029Z,4.88
2022-11-19T19:40:28.494Z,5.04
2022-11-19T19:43:15.133Z,4.93
2022-11-19T19:46:09.738Z,4.71
2022-11-19T19:48:56.802Z,4.72
2022-11-19T19:51:43.104Z,4.70
2022-11-19T19:54:29.576Z,4.64
2022-11-19T19:57:16.340Z,4.54
2022-11-19T20:00:03.126Z,4.28
2022-11-19T20:02:58.573Z,4.33
2022-11-19T20:05:49.687Z,4.15
2022-11-19T20:08:36.482Z,4.25
2022-11-19T20:11:25.607Z,4.17
2022-11-19T20:14:11.976Z,4.10
2022-11-19T20:16:58.683Z,4.22
2022-11-19T20:19:45.299Z,4.17
2022-11-19T20:22:31.481Z,4.10
2022-11-19T20:25:26.140Z,4.02
2022-11-19T20:28:13.021Z,4.02
2022-11-19T20:31:11.381Z,4.21
2022-11-19T20:34:00.779Z,4.14
2022-11-19T20:36:47.327Z,3.58
2022-11-19T20:39:33.972Z,4.14
2022-11-19T20:42:39.307Z,4.06
2022-11-19T20:45:25.594Z,4.07
2022-11-19T20:48:12.578Z,4.07
2022-11-19T20:50:59.310Z,4.13
2022-11-19T20:53:46.043Z,4.28
2022-11-19T20:56:32.624Z,4.34
2022-11-19T20:59:20.384Z,4.15
2022-11-19T21:02:09.105Z,4.07
2022-11-19T21:04:57.264Z,3.92
2022-11-19T21:07:43.713Z,3.84
2022-11-19T21:10:30.227Z,3.88
2022-11-19T21:13:16.526Z,3.86
2022-11-19T21:16:13.041Z,3.77
2022-11-19T21:18:59.975Z,3.78
2022-11-19T21:21:46.302Z,3.54
2022-11-19T21:24:32.993Z,3.63
